Time;durP1;ratioP1;P1;durP2;ratioP2;P2;SDS_P1;SDS_P2;PMS_P1;PMS_P2;Temp;Humidity;BMP_temperature;BMP_pressure;BME280_temperature;BME280_humidity;BME280_pressure;Samples;Min_cycle;Max_cycle;Signal;HPM_P1;HPM_P2
2023/10/14 00:02:03;;;;;;;22.77;6.63;;;;;;;;;;4973673;28;20055;-53
2023/10/14 00:04:33;;;;;;;34.10;7.78;;;;;;;;;;4956243;28;20059;-55
2023/10/14 00:07:07;;;;;;;44.35;7.68;;;;;;;;;;4987026;28;20043;-54
2023/10/14 00:09:36;;;;;;;42.53;7.72;;;;;;;;;;4984893;28;20047;-53
2023/10/14 00:12:12;;;;;;;44.90;8.15;;;;;;;;;;4982751;28;20049;-57
2023/10/14 00:14:43;;;;;;;72.88;10.35;;;;;;;;;;4982980;28;20070;-57
2023/10/14 00:17:17;;;;;;;44.38;8.35;;;;;;;;;;4986445;28;20386;-52
2023/10/14 00:19:49;;;;;;;;;;;;;;;;;;4986315;28;20050;-56
2023/10/14 00:22:18;;;;;;;47.50;7.93;;;;;;;;;;4984962;28;19929;-55
2023/10/14 00:24:48;;;;;;;31.15;7.35;;;;;;;;;;4982907;28;20049;-55
2023/10/14 00:27:15;;;;;;;40.72;8.23;;;;;;;;;;4982686;28;20043;-56
2023/10/14 00:29:42;;;;;;;47.08;8.18;;;;;;;;;;4965192;28;20766;-53
2023/10/14 00:32:08;;;;;;;35.35;7.78;;;;;;;;;;4983273;28;20055;-55
2023/10/14 00:34:35;;;;;;;33.25;7.45;;;;;;;;;;4966197;28;20090;-57
2023/10/14 00:37:02;;;;;;;46.20;8.30;;;;;;;;;;4980598;28;20074;-54
2023/10/14 00:39:31;;;;;;;41.58;8.30;;;;;;;;;;4965520;28;20043;-54
2023/10/14 00:41:58;;;;;;;33.13;7.95;;;;;;;;;;4981919;28;20125;-58
2023/10/14 00:44:26;;;;;;;69.82;10.13;;;;;;;;;;4968466;28;20050;-53
2023/10/14 00:46:54;;;;;;;31.88;7.35;;;;;;;;;;4984310;28;20105;-51
2023/10/14 00:49:22;;;;;;;38.08;7.50;;;;;;;;;;4966859;28;20045;-52
2023/10/14 00:51:53;;;;;;;35.55;8.55;;;;;;;;;;4979836;28;20034;-53
2023/10/14 00:57:19;;;;;;;42.05;9.00;;;;;;;;;;4999428;28;20419;-55
2023/10/14 00:59:47;;;;;;;35.92;8.30;;;;;;;;;;4982205;28;20082;-51
2023/10/14 01:02:14;;;;;;;49.45;8.52;;;;;;;;;;4983851;28;20384;-51
2023/10/14 01:04:48;;;;;;;27.40;7.80;;;;;;;;;;4964282;28;20047;-50
2023/10/14 01:07:15;;;;;;;43.50;7.85;;;;;;;;;;4990075;28;20389;-54
2023/10/14 01:12:37;;;;;;;25.10;7.25;;;;;;;;;;4964421;28;20420;-55
2023/10/14 01:15:10;;;;;;;49.47;10.02;;;;;;;;;;4959004;28;20050;-55
2023/10/14 01:17:37;;;;;;;79.45;9.90;;;;;;;;;;4981838;28;20113;-56
2023/10/14 01:22:44;;;;;;;26.55;7.90;;;;;;;;;;4960981;28;20444;-57
2023/10/14 01:25:15;;;;;;;39.45;8.75;;;;;;;;;;4977765;28;20050;-58
2023/10/14 01:27:45;;;;;;;43.25;8.02;;;;;;;;;;4964288;28;20500;-51
2023/10/14 01:30:25;;;;;;;32.35;8.70;;;;;;;;;;4981025;28;20114;-55
2023/10/14 01:32:56;;;;;;;35.25;7.82;;;;;;;;;;4962376;28;20035;-56
2023/10/14 01:37:54;;;;;;;45.70;8.70;;;;;;;;;;4981724;28;20050;-51
2023/10/14 01:40:27;;;;;;;34.53;7.93;;;;;;;;;;4963248;28;20046;-54
2023/10/14 01:42:56;;;;;;;30.88;7.90;;;;;;;;;;4984390;28;20046;-58
2023/10/14 01:48:12;;;;;;;27.52;7.70;;;;;;;;;;4981037;28;20054;-56
2023/10/14 01:50:46;;;;;;;77.22;10.13;;;;;;;;;;4981465;28;20069;-55
2023/10/14 01:53:18;;;;;;;29.02;7.45;;;;;;;;;;4982031;28;20047;-51
2023/10/14 01:55:47;;;;;;;35.72;7.20;;;;;;;;;;4960476;28;20061;-55
2023/10/14 01:58:22;;;;;;;37.95;8.40;;;;;;;;;;4966740;28;20132;-51
2023/10/14 02:04:02;;;;;;;33.97;7.28;;;;;;;;;;4968032;23;20054;-59
2023/10/14 02:06:30;;;;;;;36.20;7.95;;;;;;;;;;4948044;28;20054;-59
2023/10/14 02:09:00;;;;;;;38.72;8.65;;;;;;;;;;4965743;28;20059;-58
2023/10/14 02:11:33;;;;;;;73.85;10.30;;;;;;;;;;4963698;28;20218;-59
2023/10/14 02:14:07;;;;;;;31.65;7.72;;;;;;;;;;4952971;28;20047;-60
2023/10/14 02:16:41;;;;;;;32.47;7.68;;;;;;;;;;4976792;28;20122;-59
2023/10/14 02:19:36;;;;;;;38.40;7.63;;;;;;;;;;4948114;28;20469;-58
2023/10/14 02:22:09;;;;;;;29.45;8.93;;;;;;;;;;4948045;29;20388;-59
2023/10/14 02:24:36;;;;;;;30.70;7.60;;;;;;;;;;4955847;28;20877;-60
2023/10/14 02:27:13;;;;;;;32.20;7.63;;;;;;;;;;4954776;28;20046;-58
2023/10/14 02:29:44;;;;;;;75.40;10.13;;;;;;;;;;4963511;28;20039;-58
2023/10/14 02:32:12;;;;;;;32.22;7.60;;;;;;;;;;4953543;28;20602;-59
2023/10/14 02:34:44;;;;;;;29.50;7.05;;;;;;;;;;4933710;28;20057;-59
2023/10/14 02:37:15;;;;;;;30.92;6.88;;;;;;;;;;4950710;28;20031;-58
2023/10/14 02:39:43;;;;;;;30.65;7.00;;;;;;;;;;4962616;28;20046;-58
2023/10/14 02:42:10;;;;;;;45.65;8.63;;;;;;;;;;4952881;28;20043;-60
2023/10/14 02:44:48;;;;;;;68.63;9.07;;;;;;;;;;4947980;28;20153;-58
2023/10/14 02:47:14;;;;;;;35.10;7.82;;;;;;;;;;4968247;28;20043;-61
2023/10/14 02:49:41;;;;;;;30.27;6.82;;;;;;;;;;4964095;28;20497;-58
2023/10/14 02:52:10;;;;;;;28.25;6.70;;;;;;;;;;4963661;28;20054;-58
2023/10/14 02:54:42;;;;;;;32.88;7.47;;;;;;;;;;4944564;28;20051;-59
2023/10/14 02:57:28;;;;;;;39.72;7.70;;;;;;;;;;4954928;28;20109;-58
2023/10/14 02:59:58;;;;;;;38.50;8.00;;;;;;;;;;4947029;28;20498;-59
2023/10/14 03:02:27;;;;;;;39.33;8.18;;;;;;;;;;4971137;28;20477;-59
2023/10/14 03:07:28;;;;;;;26.80;6.65;;;;;;;;;;4964747;28;20539;-58
2023/10/14 03:09:58;;;;;;;25.33;7.15;;;;;;;;;;4967442;28;20074;-61
2023/10/14 03:12:25;;;;;;;29.23;7.03;;;;;;;;;;4963915;28;20038;-59
2023/10/14 03:14:53;;;;;;;44.88;7.55;;;;;;;;;;4978975;28;20074;-60
2023/10/14 03:17:39;;;;;;;34.30;7.00;;;;;;;;;;4966447;28;20047;-59
2023/10/14 03:20:34;;;;;;;21.83;6.45;;;;;;;;;;4963899;28;20039;-59
2023/10/14 03:22:54;;;;;;;43.72;8.60;;;;;;;;;;4967522;28;20184;-59
2023/10/14 03:25:24;;;;;;;44.65;8.27;;;;;;;;;;4968257;28;20035;-59
2023/10/14 03:27:51;;;;;;;30.23;6.47;;;;;;;;;;4949208;28;20437;-60
2023/10/14 03:30:17;;;;;;;44.35;7.82;;;;;;;;;;4949018;28;20113;-61
2023/10/14 03:32:44;;;;;;;30.10;6.72;;;;;;;;;;4959404;28;20055;-59
2023/10/14 03:35:12;;;;;;;32.13;7.40;;;;;;;;;;4951914;28;20051;-59
2023/10/14 03:37:52;;;;;;;27.30;6.75;;;;;;;;;;4969150;28;20105;-60
2023/10/14 03:40:37;;;;;;;28.45;6.97;;;;;;;;;;4965142;28;20039;-60
2023/10/14 03:43:09;;;;;;;34.47;7.60;;;;;;;;;;4950261;28;20485;-60
2023/10/14 03:45:46;;;;;;;41.53;7.38;;;;;;;;;;4964214;28;20042;-59
2023/10/14 03:48:14;;;;;;;39.60;7.75;;;;;;;;;;4958227;28;20058;-60
2023/10/14 03:50:40;;;;;;;65.50;9.27;;;;;;;;;;4965128;28;20071;-61
2023/10/14 03:53:07;;;;;;;53.65;8.13;;;;;;;;;;4949367;28;20039;-60
2023/10/14 03:55:34;;;;;;;41.85;7.22;;;;;;;;;;4955866;28;20134;-59
2023/10/14 03:58:04;;;;;;;35.78;7.22;;;;;;;;;;4970218;28;20054;-60
2023/10/14 04:00:37;;;;;;;27.02;6.93;;;;;;;;;;4966667;28;20121;-59
2023/10/14 04:03:06;;;;;;;34.13;7.70;;;;;;;;;;4954130;28;20047;-60
2023/10/14 04:05:37;;;;;;;66.07;9.40;;;;;;;;;;4965740;28;20038;-61
2023/10/14 04:08:14;;;;;;;33.92;6.97;;;;;;;;;;4977658;28;20066;-60
2023/10/14 04:10:54;;;;;;;23.33;6.35;;;;;;;;;;4952440;28;20054;-59
2023/10/14 04:13:21;;;;;;;33.80;6.97;;;;;;;;;;4950205;28;20397;-59
2023/10/14 04:15:51;;;;;;;24.80;7.03;;;;;;;;;;4947067;28;20141;-60
2023/10/14 04:18:24;;;;;;;31.88;6.57;;;;;;;;;;4937736;28;20039;-61
2023/10/14 04:21:10;;;;;;;30.20;7.43;;;;;;;;;;4966698;28;20468;-59
2023/10/14 04:23:48;;;;;;;46.08;7.60;;;;;;;;;;4949681;28;20057;-60
2023/10/14 04:26:21;;;;;;;30.63;6.43;;;;;;;;;;4966610;28;20472;-59
2023/10/14 04:28:54;;;;;;;28.02;6.78;;;;;;;;;;4955895;28;20126;-61
2023/10/14 04:31:38;;;;;;;33.10;7.03;;;;;;;;;;4964963;28;20041;-61
2023/10/14 04:34:06;;;;;;;;;;;;;;;;;;4973925;28;20280;-60
2023/10/14 04:36:37;;;;;;;35.92;7.00;;;;;;;;;;4948363;28;19949;-59
2023/10/14 04:39:18;;;;;;;37.60;8.13;;;;;;;;;;4964652;28;20373;-59
2023/10/14 04:44:37;;;;;;;49.88;7.55;;;;;;;;;;4953812;28;20121;-59
2023/10/14 04:47:04;;;;;;;53.67;8.07;;;;;;;;;;4956695;28;20050;-59
2023/10/14 04:49:42;;;;;;;25.15;6.20;;;;;;;;;;4966943;28;20043;-59
2023/10/14 04:52:08;;;;;;;29.10;6.15;;;;;;;;;;4943931;28;20051;-60
2023/10/14 04:54:37;;;;;;;29.85;6.78;;;;;;;;;;4967367;28;20043;-59
2023/10/14 04:59:53;;;;;;;36.95;7.43;;;;;;;;;;4956651;28;20078;-59
2023/10/14 05:02:24;;;;;;;38.17;7.65;;;;;;;;;;4953405;28;20319;-60
2023/10/14 05:04:51;;;;;;;25.63;6.20;;;;;;;;;;4955766;28;20047;-60
2023/10/14 05:07:21;;;;;;;33.90;6.88;;;;;;;;;;4963311;28;20384;-58
2023/10/14 05:09:57;;;;;;;28.70;6.13;;;;;;;;;;4969735;28;20050;-58
2023/10/14 05:12:25;;;;;;;46.67;7.00;;;;;;;;;;4979289;28;20448;-59
2023/10/14 05:14:52;;;;;;;37.00;6.55;;;;;;;;;;4964913;28;20112;-59
2023/10/14 05:17:25;;;;;;;35.90;6.70;;;;;;;;;;4970826;28;20047;-60
2023/10/14 05:19:58;;;;;;;27.77;6.93;;;;;;;;;;4937937;28;20043;-60
2023/10/14 05:22:37;;;;;;;30.33;6.40;;;;;;;;;;4966465;28;20050;-59
2023/10/14 05:25:08;;;;;;;34.03;6.63;;;;;;;;;;4981469;28;20097;-59
2023/10/14 05:27:45;;;;;;;38.83;6.65;;;;;;;;;;4964886;28;20043;-58
2023/10/14 05:30:15;;;;;;;40.65;6.32;;;;;;;;;;4965950;28;20038;-59
2023/10/14 05:32:44;;;;;;;54.13;7.13;;;;;;;;;;4929057;28;20121;-60
2023/10/14 05:35:11;;;;;;;32.42;6.50;;;;;;;;;;4972429;28;20042;-58
2023/10/14 05:37:45;;;;;;;97.10;10.25;;;;;;;;;;4950157;28;20047;-59
2023/10/14 05:40:15;;;;;;;137.07;13.18;;;;;;;;;;4964556;28;20117;-60
2023/10/14 05:42:47;;;;;;;472.40;42.65;;;;;;;;;;4939317;28;20067;-63
2023/10/14 05:45:14;;;;;;;49.58;6.85;;;;;;;;;;4980987;28;20539;-59
2023/10/14 05:47:42;;;;;;;59.03;7.70;;;;;;;;;;4967643;28;20046;-59
2023/10/14 05:50:14;;;;;;;43.85;5.80;;;;;;;;;;4954564;28;20047;-59
2023/10/14 05:52:43;;;;;;;48.60;7.18;;;;;;;;;;4976279;28;20047;-59
2023/10/14 05:55:10;;;;;;;28.40;6.20;;;;;;;;;;4952188;28;20039;-60
2023/10/14 05:57:39;;;;;;;53.95;7.32;;;;;;;;;;4947049;28;20388;-60
2023/10/14 06:00:25;;;;;;;42.80;7.13;;;;;;;;;;4971338;28;20058;-61
2023/10/14 06:02:53;;;;;;;61.20;7.75;;;;;;;;;;4952700;28;20057;-60
2023/10/14 06:05:21;;;;;;;25.10;5.07;;;;;;;;;;4970862;28;20047;-59
2023/10/14 06:07:48;;;;;;;26.20;5.93;;;;;;;;;;4954679;28;20118;-59
2023/10/14 06:10:20;;;;;;;34.17;6.03;;;;;;;;;;4970318;28;20086;-60
2023/10/14 06:12:48;;;;;;;29.73;4.93;;;;;;;;;;4938294;28;20051;-59
2023/10/14 06:15:17;;;;;;;58.78;7.53;;;;;;;;;;4950382;28;20041;-59
2023/10/14 06:17:45;;;;;;;67.80;8.43;;;;;;;;;;4964011;28;20329;-59
2023/10/14 06:20:16;;;;;;;42.88;7.47;;;;;;;;;;4962331;28;20413;-60
2023/10/14 06:22:43;;;;;;;25.17;5.20;;;;;;;;;;4944710;28;20472;-59
2023/10/14 06:25:16;;;;;;;27.35;5.90;;;;;;;;;;4952140;28;20511;-60
2023/10/14 06:27:45;;;;;;;24.65;4.40;;;;;;;;;;4954604;28;20094;-60
2023/10/14 06:30:18;;;;;;;36.28;5.28;;;;;;;;;;4948493;28;20527;-59
2023/10/14 06:32:52;;;;;;;74.10;8.88;;;;;;;;;;4953531;28;20049;-59
2023/10/14 06:35:19;;;;;;;23.70;4.88;;;;;;;;;;4965805;28;20039;-59
2023/10/14 06:37:47;;;;;;;33.55;5.00;;;;;;;;;;4951422;28;20034;-59
2023/10/14 06:40:14;;;;;;;32.55;5.30;;;;;;;;;;4947339;28;20400;-59
2023/10/14 06:42:43;;;;;;;32.97;5.22;;;;;;;;;;4963724;28;20050;-60
2023/10/14 06:45:13;;;;;;;31.13;5.53;;;;;;;;;;4953813;28;20468;-60
2023/10/14 06:47:46;;;;;;;52.40;7.00;;;;;;;;;;4953713;28;20489;-59
2023/10/14 06:50:12;;;;;;;19.70;4.60;;;;;;;;;;4952224;28;20039;-63
2023/10/14 06:52:40;;;;;;;37.03;6.00;;;;;;;;;;4963886;28;20058;-59
2023/10/14 06:55:07;;;;;;;18.15;4.45;;;;;;;;;;4947821;28;20462;-61
2023/10/14 06:57:37;;;;;;;28.08;5.63;;;;;;;;;;4963433;28;20492;-58
2023/10/14 07:00:08;;;;;;;28.70;4.78;;;;;;;;;;4950232;28;20034;-61
2023/10/14 07:02:35;;;;;;;69.60;8.35;;;;;;;;;;4953363;28;20059;-60
2023/10/14 07:05:02;;;;;;;31.08;5.13;;;;;;;;;;4962393;28;20035;-57
2023/10/14 07:07:29;;;;;;;38.55;5.75;;;;;;;;;;4962957;28;20043;-59
2023/10/14 07:09:56;;;;;;;28.88;5.07;;;;;;;;;;4966942;28;20050;-58
2023/10/14 07:12:23;;;;;;;35.92;5.10;;;;;;;;;;4952922;28;20055;-60
2023/10/14 07:14:50;;;;;;;57.42;7.00;;;;;;;;;;4970751;28;20045;-60
2023/10/14 07:17:22;;;;;;;41.92;5.65;;;;;;;;;;4971602;28;20045;-60
2023/10/14 07:19:50;;;;;;;24.90;4.35;;;;;;;;;;4969146;28;20455;-61
2023/10/14 07:22:20;;;;;;;39.15;5.70;;;;;;;;;;4970182;28;20031;-60
2023/10/14 07:24:48;;;;;;;26.08;5.07;;;;;;;;;;4952482;28;20047;-61
2023/10/14 07:27:17;;;;;;;31.83;5.45;;;;;;;;;;4970490;28;20487;-59
2023/10/14 07:29:45;;;;;;;61.22;7.45;;;;;;;;;;4969046;28;20070;-61
2023/10/14 07:32:15;;;;;;;36.00;5.13;;;;;;;;;;4965063;28;20469;-59
2023/10/14 07:34:42;;;;;;;37.70;5.60;;;;;;;;;;4963469;28;20047;-59
2023/10/14 07:37:09;;;;;;;32.33;5.35;;;;;;;;;;4945359;28;20483;-59
2023/10/14 07:39:36;;;;;;;36.22;6.03;;;;;;;;;;4962836;28;20047;-59
2023/10/14 07:42:09;;;;;;;26.08;5.93;;;;;;;;;;4977268;28;20042;-60
2023/10/14 07:44:36;;;;;;;69.93;8.27;;;;;;;;;;4961040;28;20121;-60
2023/10/14 07:47:05;;;;;;;24.85;4.90;;;;;;;;;;4963511;28;20039;-61
2023/10/14 07:49:33;;;;;;;30.40;5.97;;;;;;;;;;4949379;28;20061;-59
2023/10/14 07:52:00;;;;;;;24.05;5.10;;;;;;;;;;4962523;28;20444;-60
2023/10/14 07:54:28;;;;;;;22.23;4.63;;;;;;;;;;4976870;28;20467;-59
2023/10/14 07:56:55;;;;;;;40.67;6.15;;;;;;;;;;4963593;28;23563;-58
2023/10/14 07:59:21;;;;;;;23.98;5.18;;;;;;;;;;4961205;28;20477;-59
2023/10/14 08:01:48;;;;;;;27.00;5.50;;;;;;;;;;4965877;28;20047;-57
2023/10/14 08:04:15;;;;;;;33.15;5.70;;;;;;;;;;4950352;28;20587;-58
2023/10/14 08:06:43;;;;;;;32.13;4.80;;;;;;;;;;4946351;28;20499;-57
2023/10/14 08:09:23;;;;;;;29.02;5.35;;;;;;;;;;4964333;28;20476;-60
2023/10/14 08:11:51;;;;;;;42.38;6.22;;;;;;;;;;4967285;28;20118;-58
2023/10/14 08:14:18;;;;;;;27.58;5.07;;;;;;;;;;4950199;29;20481;-57
2023/10/14 08:16:46;;;;;;;37.75;5.28;;;;;;;;;;4963564;28;20054;-58
2023/10/14 08:19:14;;;;;;;36.38;6.13;;;;;;;;;;4954525;28;20382;-57
2023/10/14 08:21:43;;;;;;;29.35;5.22;;;;;;;;;;4947913;28;20671;-57
2023/10/14 08:24:14;;;;;;;53.03;6.53;;;;;;;;;;4935425;28;20460;-57
2023/10/14 08:26:41;;;;;;;55.97;6.93;;;;;;;;;;4948856;28;20049;-57
2023/10/14 08:29:12;;;;;;;74.15;6.90;;;;;;;;;;4964743;28;20125;-57
2023/10/14 08:31:39;;;;;;;34.58;5.60;;;;;;;;;;4954349;28;20039;-57
2023/10/14 08:34:07;;;;;;;34.33;6.07;;;;;;;;;;4945906;28;20469;-58
2023/10/14 08:36:34;;;;;;;40.35;6.25;;;;;;;;;;4969518;28;20388;-60
2023/10/14 08:39:01;;;;;;;35.47;5.85;;;;;;;;;;4965466;28;20046;-58
2023/10/14 08:41:30;;;;;;;27.77;5.80;;;;;;;;;;4965922;28;20047;-57
2023/10/14 08:43:59;;;;;;;23.67;5.30;;;;;;;;;;4965581;28;20046;-57
2023/10/14 08:46:34;;;;;;;45.95;7.13;;;;;;;;;;4969743;28;20654;-57
2023/10/14 08:49:03;;;;;;;56.30;7.28;;;;;;;;;;4982492;28;20038;-59
2023/10/14 08:51:30;;;;;;;27.92;5.25;;;;;;;;;;4947241;28;20046;-59
2023/10/14 08:54:19;;;;;;;50.53;6.72;;;;;;;;;;4966276;28;20137;-57
2023/10/14 08:56:48;;;;;;;83.30;9.35;;;;;;;;;;4941146;28;20046;-61
2023/10/14 08:59:16;;;;;;;28.73;5.07;;;;;;;;;;4946415;28;20134;-58
2023/10/14 09:01:43;;;;;;;31.33;6.15;;;;;;;;;;4969080;28;20054;-60
2023/10/14 09:04:15;;;;;;;35.95;5.82;;;;;;;;;;4953245;28;20484;-58
2023/10/14 09:06:42;;;;;;;43.80;6.40;;;;;;;;;;4967124;28;20091;-57
2023/10/14 09:09:20;;;;;;;53.95;7.38;;;;;;;;;;4955757;28;20042;-58
2023/10/14 09:11:47;;;;;;;77.80;9.63;;;;;;;;;;4964214;28;20115;-58
2023/10/14 09:14:16;;;;;;;35.30;6.20;;;;;;;;;;4966989;28;20058;-58
2023/10/14 09:16:48;;;;;;;39.97;6.47;;;;;;;;;;4966667;28;20035;-59
2023/10/14 09:19:15;;;;;;;24.02;4.68;;;;;;;;;;4964157;28;20035;-58
2023/10/14 09:21:43;;;;;;;32.33;5.70;;;;;;;;;;4964308;28;20085;-58
2023/10/14 09:24:09;;;;;;;32.67;6.28;;;;;;;;;;4967223;28;20034;-58
2023/10/14 09:26:37;;;;;;;88.20;10.38;;;;;;;;;;4965470;28;20078;-59
2023/10/14 09:29:04;;;;;;;43.25;6.10;;;;;;;;;;4952966;28;20050;-58
2023/10/14 09:31:36;;;;;;;37.75;6.68;;;;;;;;;;4965894;28;20865;-58
2023/10/14 09:34:02;;;;;;;28.58;5.88;;;;;;;;;;4961146;28;20074;-59
2023/10/14 09:36:33;;;;;;;48.92;7.22;;;;;;;;;;4951015;28;20101;-59
2023/10/14 09:39:00;;;;;;;51.75;9.07;;;;;;;;;;4963631;28;20038;-58
2023/10/14 09:41:28;;;;;;;66.28;9.23;;;;;;;;;;4948388;28;20388;-58
2023/10/14 09:43:56;;;;;;;35.85;6.07;;;;;;;;;;4952443;28;20086;-59
2023/10/14 09:46:24;;;;;;;22.35;5.72;;;;;;;;;;4963870;28;20135;-58
2023/10/14 09:48:55;;;;;;;54.40;7.30;;;;;;;;;;4947924;28;20133;-60
2023/10/14 09:51:23;;;;;;;36.80;7.22;;;;;;;;;;4964196;28;20035;-59
2023/10/14 09:53:51;;;;;;;74.75;9.32;;;;;;;;;;4946694;28;20369;-58
2023/10/14 09:56:18;;;;;;;45.67;6.80;;;;;;;;;;4963300;28;20051;-60
2023/10/14 09:59:03;;;;;;;77.25;8.57;;;;;;;;;;4943600;29;20495;-59
2023/10/14 10:01:30;;;;;;;26.40;5.82;;;;;;;;;;4943412;28;20126;-59
2023/10/14 10:04:10;;;;;;;34.70;5.97;;;;;;;;;;4965115;28;20055;-58
2023/10/14 10:06:43;;;;;;;81.30;8.50;;;;;;;;;;4965521;28;20043;-57
2023/10/14 10:09:28;;;;;;;47.55;7.90;;;;;;;;;;4935416;28;20039;-58
2023/10/14 10:11:57;;;;;;;57.88;7.63;;;;;;;;;;4963883;28;20380;-58
2023/10/14 10:14:24;;;;;;;32.13;5.72;;;;;;;;;;4952520;29;20130;-58
2023/10/14 10:16:52;;;;;;;36.65;5.93;;;;;;;;;;4953076;28;20045;-59
2023/10/14 10:19:22;;;;;;;37.42;7.10;;;;;;;;;;4962375;28;20045;-58
2023/10/14 10:22:29;;;;;;;46.03;7.07;;;;;;;;;;4962156;28;20050;-58
2023/10/14 10:24:56;;;;;;;58.17;7.43;;;;;;;;;;4877006;29;20562;-57
2023/10/14 10:27:23;;;;;;;56.25;7.05;;;;;;;;;;4892124;29;20052;-58
2023/10/14 10:29:49;;;;;;;104.97;9.98;;;;;;;;;;4892865;29;20080;-58
2023/10/14 10:32:20;;;;;;;76.43;9.32;;;;;;;;;;4893715;29;20052;-57
2023/10/14 10:35:06;;;;;;;70.15;8.65;;;;;;;;;;4892725;29;20044;-58
2023/10/14 10:37:33;;;;;;;53.17;6.68;;;;;;;;;;4892928;29;20045;-59
2023/10/14 10:40:10;;;;;;;26.33;6.65;;;;;;;;;;4892912;29;20859;-58
2023/10/14 10:42:38;;;;;;;25.45;6.15;;;;;;;;;;4893068;29;20117;-57
2023/10/14 10:45:09;;;;;;;77.10;7.95;;;;;;;;;;4893316;29;20123;-58
2023/10/14 10:47:54;;;;;;;62.05;8.70;;;;;;;;;;4891428;29;20048;-59
2023/10/14 10:50:22;;;;;;;51.47;7.85;;;;;;;;;;4893515;29;20443;-59
2023/10/14 10:52:54;;;;;;;53.92;7.47;;;;;;;;;;4892729;29;20459;-58
2023/10/14 10:55:23;;;;;;;70.57;9.85;;;;;;;;;;4914847;28;20047;-59
2023/10/14 10:57:56;;;;;;;77.70;9.32;;;;;;;;;;4966691;28;20074;-58
2023/10/14 11:00:23;;;;;;;41.42;6.72;;;;;;;;;;4966900;28;20047;-58
2023/10/14 11:02:54;;;;;;;67.78;8.80;;;;;;;;;;4963757;28;20050;-60
2023/10/14 11:05:21;;;;;;;38.97;6.25;;;;;;;;;;4964590;28;20043;-58
2023/10/14 11:07:48;;;;;;;21.63;5.38;;;;;;;;;;4965081;28;20055;-59
2023/10/14 11:10:15;;;;;;;38.97;6.25;;;;;;;;;;4965385;28;20039;-59
2023/10/14 11:12:42;;;;;;;45.10;7.18;;;;;;;;;;4953409;28;20489;-62
2023/10/14 11:15:18;;;;;;;31.25;6.03;;;;;;;;;;4938445;28;20077;-60
2023/10/14 11:17:46;;;;;;;78.75;8.77;;;;;;;;;;4962630;28;20059;-58
2023/10/14 11:20:15;;;;;;;37.65;6.13;;;;;;;;;;4977073;28;20118;-60
2023/10/14 11:22:43;;;;;;;32.45;5.93;;;;;;;;;;4962603;28;20101;-59
2023/10/14 11:25:13;;;;;;;37.53;5.25;;;;;;;;;;4952379;28;20160;-59
2023/10/14 11:27:56;;;;;;;31.85;5.80;;;;;;;;;;4965056;28;20126;-57
2023/10/14 11:30:25;;;;;;;52.67;6.22;;;;;;;;;;4950533;28;20042;-58
2023/10/14 11:32:52;;;;;;;58.13;8.45;;;;;;;;;;4961838;28;20389;-60
2023/10/14 11:35:22;;;;;;;41.75;5.85;;;;;;;;;;4960964;28;20043;-60
2023/10/14 11:37:49;;;;;;;32.90;5.70;;;;;;;;;;4949613;28;20482;-60
2023/10/14 11:40:31;;;;;;;37.72;6.13;;;;;;;;;;4961258;28;20066;-60
2023/10/14 11:42:58;;;;;;;36.78;5.68;;;;;;;;;;4961692;28;20369;-61
2023/10/14 11:45:24;;;;;;;44.83;6.93;;;;;;;;;;4949010;28;20134;-60
2023/10/14 11:47:51;;;;;;;79.93;9.15;;;;;;;;;;4966127;28;20039;-59
2023/10/14 11:50:18;;;;;;;48.25;6.75;;;;;;;;;;4969670;28;20494;-59
2023/10/14 11:52:47;;;;;;;41.63;6.40;;;;;;;;;;4983602;28;20477;-59
2023/10/14 11:55:14;;;;;;;38.60;6.03;;;;;;;;;;4954175;29;20047;-59
2023/10/14 11:57:42;;;;;;;42.38;6.40;;;;;;;;;;4966951;28;20059;-59
2023/10/14 12:00:11;;;;;;;41.40;5.72;;;;;;;;;;4957127;28;20038;-58
2023/10/14 12:02:39;;;;;;;56.50;6.55;;;;;;;;;;4964853;28;20059;-60
2023/10/14 12:05:06;;;;;;;36.38;6.50;;;;;;;;;;4948323;28;20053;-58
2023/10/14 12:07:33;;;;;;;32.47;5.28;;;;;;;;;;4965136;28;20098;-58
2023/10/14 12:10:00;;;;;;;67.95;8.80;;;;;;;;;;4954691;28;20051;-59
2023/10/14 12:12:27;;;;;;;37.50;5.72;;;;;;;;;;4949524;28;20039;-61
2023/10/14 12:14:53;;;;;;;52.10;6.63;;;;;;;;;;4966294;28;20149;-60
2023/10/14 12:17:20;;;;;;;28.92;5.47;;;;;;;;;;4948614;29;20136;-59
2023/10/14 12:19:47;;;;;;;41.90;6.80;;;;;;;;;;4978552;28;20049;-59
2023/10/14 12:22:13;;;;;;;27.50;5.10;;;;;;;;;;4963348;28;20043;-60
2023/10/14 12:24:42;;;;;;;38.80;6.25;;;;;;;;;;4966567;28;20090;-59
2023/10/14 12:27:14;;;;;;;72.95;6.95;;;;;;;;;;4964988;28;20495;-58
2023/10/14 12:29:40;;;;;;;85.82;8.93;;;;;;;;;;4940943;28;20071;-59
2023/10/14 12:32:14;;;;;;;45.22;6.60;;;;;;;;;;4966364;28;20038;-59
2023/10/14 12:34:46;;;;;;;40.47;6.05;;;;;;;;;;4964739;28;20070;-58
2023/10/14 12:37:19;;;;;;;32.50;5.55;;;;;;;;;;4983296;28;20034;-59
2023/10/14 12:39:48;;;;;;;;;;;;;;;;;;4968848;28;20074;-58
2023/10/14 12:42:16;;;;;;;33.65;5.38;;;;;;;;;;4949098;28;20004;-60
2023/10/14 12:44:49;;;;;;;80.88;8.57;;;;;;;;;;4948417;28;20038;-59
2023/10/14 12:47:20;;;;;;;31.90;5.25;;;;;;;;;;4978781;28;20177;-59
2023/10/14 12:49:47;;;;;;;44.85;6.55;;;;;;;;;;4948587;28;20049;-59
2023/10/14 12:52:15;;;;;;;27.38;4.93;;;;;;;;;;4966035;28;20042;-60
2023/10/14 12:54:42;;;;;;;31.20;5.50;;;;;;;;;;4954410;28;20043;-59
2023/10/14 12:57:08;;;;;;;63.13;6.68;;;;;;;;;;4964647;28;20085;-58
2023/10/14 12:59:40;;;;;;;39.85;4.78;;;;;;;;;;4957125;28;20053;-60
2023/10/14 13:02:08;;;;;;;40.00;6.72;;;;;;;;;;4948522;28;20118;-59
2023/10/14 13:04:42;;;;;;;30.15;4.90;;;;;;;;;;4955737;28;20105;-59
2023/10/14 13:07:09;;;;;;;25.90;4.47;;;;;;;;;;4968992;28;20358;-59
2023/10/14 13:09:38;;;;;;;108.53;8.38;;;;;;;;;;4947908;28;20039;-59
2023/10/14 13:12:15;;;;;;;55.20;6.00;;;;;;;;;;4965811;28;20047;-59
2023/10/14 13:14:43;;;;;;;77.70;8.15;;;;;;;;;;4963587;28;20043;-58
2023/10/14 13:17:10;;;;;;;41.88;5.57;;;;;;;;;;4966745;28;20092;-58
2023/10/14 13:34:24;;;;;;;99.90;8.13;;;;;;;;;;4890943;29;20071;-59
2023/10/14 13:36:51;;;;;;;37.53;5.07;;;;;;;;;;4906700;29;20072;-61
2023/10/14 13:39:24;;;;;;;40.55;6.13;;;;;;;;;;4891389;29;20099;-59
2023/10/14 13:41:51;;;;;;;74.30;7.78;;;;;;;;;;4911467;29;20573;-60
2023/10/14 13:44:17;;;;;;;20.65;3.95;;;;;;;;;;4916248;29;20096;-61
2023/10/14 13:46:44;;;;;;;36.45;6.93;;;;;;;;;;4912731;29;20096;-60
2023/10/14 13:49:12;;;;;;;32.83;4.63;;;;;;;;;;4909302;29;20482;-59
2023/10/14 13:51:40;;;;;;;51.90;5.45;;;;;;;;;;4896059;29;20135;-62
2023/10/14 13:54:07;;;;;;;43.90;5.25;;;;;;;;;;4897507;29;20044;-58
2023/10/14 13:56:34;;;;;;;31.05;4.72;;;;;;;;;;4912764;29;20051;-60
2023/10/14 13:59:01;;;;;;;24.40;3.25;;;;;;;;;;4904415;29;20644;-56
2023/10/14 14:01:28;;;;;;;30.73;4.28;;;;;;;;;;4903475;29;20452;-57
2023/10/14 14:03:58;;;;;;;45.13;4.13;;;;;;;;;;4889438;29;20127;-58
2023/10/14 14:06:25;;;;;;;36.90;5.20;;;;;;;;;;4886514;29;20060;-57
2023/10/14 14:08:55;;;;;;;56.55;5.57;;;;;;;;;;4903490;29;20502;-56
2023/10/14 14:11:23;;;;;;;28.85;4.10;;;;;;;;;;4888938;29;20052;-58
2023/10/14 14:13:50;;;;;;;44.00;4.43;;;;;;;;;;4888203;29;20092;-58
2023/10/14 14:16:20;;;;;;;42.10;4.22;;;;;;;;;;4907039;29;20455;-60
2023/10/14 14:18:49;;;;;;;38.00;4.07;;;;;;;;;;4887873;29;20049;-58
2023/10/14 14:21:16;;;;;;;23.95;3.20;;;;;;;;;;4904515;29;20608;-56
2023/10/14 14:23:43;;;;;;;54.08;5.25;;;;;;;;;;4905811;29;20118;-59
2023/10/14 14:26:17;;;;;;;43.63;4.18;;;;;;;;;;4901825;29;20463;-59
2023/10/14 14:28:43;;;;;;;22.95;3.65;;;;;;;;;;4906669;29;20053;-58
2023/10/14 14:31:14;;;;;;;37.25;4.00;;;;;;;;;;4890181;29;20136;-56
2023/10/14 14:33:42;;;;;;;23.30;3.60;;;;;;;;;;4915776;29;20066;-58
2023/10/14 14:36:12;;;;;;;38.78;4.57;;;;;;;;;;4905262;29;20047;-58
2023/10/14 14:38:43;;;;;;;47.47;4.60;;;;;;;;;;4907597;29;20501;-58
2023/10/14 14:41:17;;;;;;;40.17;4.30;;;;;;;;;;4907139;29;20048;-58
2023/10/14 14:43:45;;;;;;;27.73;3.83;;;;;;;;;;4906313;29;20049;-59
2023/10/14 14:46:11;;;;;;;22.75;3.83;;;;;;;;;;4902433;29;20459;-58
2023/10/14 14:48:38;;;;;;;30.85;4.00;;;;;;;;;;4901792;29;20052;-55
2023/10/14 14:51:08;;;;;;;49.10;5.10;;;;;;;;;;4893037;29;20036;-57
2023/10/14 14:53:35;;;;;;;26.98;4.35;;;;;;;;;;4915808;29;20053;-58
2023/10/14 14:56:06;;;;;;;27.73;4.53;;;;;;;;;;4888218;29;20127;-57
2023/10/14 14:58:32;;;;;;;27.30;4.45;;;;;;;;;;4902626;29;20049;-57
2023/10/14 15:00:59;;;;;;;31.55;5.38;;;;;;;;;;4907020;29;20561;-59
2023/10/14 15:03:26;;;;;;;37.72;5.00;;;;;;;;;;4902803;29;20044;-58
2023/10/14 15:05:53;;;;;;;72.00;7.30;;;;;;;;;;4903070;29;20055;-56
2023/10/14 15:08:22;;;;;;;26.83;4.53;;;;;;;;;;4905121;29;20517;-59
2023/10/14 15:10:54;;;;;;;44.40;5.80;;;;;;;;;;4902088;29;20059;-59
2023/10/14 15:13:21;;;;;;;27.48;5.93;;;;;;;;;;4888276;29;20044;-58
2023/10/14 15:15:49;;;;;;;41.08;6.35;;;;;;;;;;4902555;29;20051;-59
2023/10/14 15:18:17;;;;;;;49.70;7.78;;;;;;;;;;4904795;29;20041;-57
2023/10/14 15:20:47;;;;;;;59.13;7.18;;;;;;;;;;4911009;29;20108;-59
2023/10/14 15:23:15;;;;;;;41.55;7.57;;;;;;;;;;4907526;29;20529;-58
2023/10/14 15:25:42;;;;;;;45.60;7.55;;;;;;;;;;4921842;29;20054;-58
2023/10/14 15:28:08;;;;;;;31.60;6.82;;;;;;;;;;4894693;29;20045;-58